Time;durP1;ratioP1;P1;durP2;ratioP2;P2;SDS_P1;SDS_P2;PMS_P1;PMS_P2;Temp;Humidity;BMP_temperature;BMP_pressure;BME280_temperature;BME280_humidity;BME280_pressure;Samples;Min_cycle;Max_cycle;Signal;HPM_P1;HPM_P2
2023/06/19 00:00:21;;;;;;;9.48;3.75;;;;;;;;;;5066252;28;20468;-65
2023/06/19 00:02:50;;;;;;;7.72;4.43;;;;;;;;;;5065519;28;20511;-61
2023/06/19 00:05:19;;;;;;;7.10;3.85;;;;;;;;;;5060900;28;20044;-62
2023/06/19 00:07:47;;;;;;;8.18;4.85;;;;;;;;;;5063862;28;20102;-61
2023/06/19 00:10:17;;;;;;;8.48;4.28;;;;;;;;;;5059136;28;20125;-61
2023/06/19 00:12:45;;;;;;;8.98;4.00;;;;;;;;;;5059964;28;20045;-63
2023/06/19 00:15:14;;;;;;;7.20;3.85;;;;;;;;;;5064653;28;20041;-66
2023/06/19 00:17:42;;;;;;;6.57;4.07;;;;;;;;;;5063234;28;20056;-68
2023/06/19 00:20:13;;;;;;;7.63;4.35;;;;;;;;;;5061772;28;20049;-62
2023/06/19 00:22:41;;;;;;;6.53;4.50;;;;;;;;;;5065118;28;20052;-63
2023/06/19 00:25:10;;;;;;;7.30;4.13;;;;;;;;;;5064185;28;20546;-67
2023/06/19 00:27:40;;;;;;;6.78;4.07;;;;;;;;;;5055683;28;20394;-65
2023/06/19 00:30:09;;;;;;;5.63;4.05;;;;;;;;;;5064325;28;20555;-63
2023/06/19 00:32:46;;;;;;;9.68;4.13;;;;;;;;;;5065838;28;20067;-64
2023/06/19 00:35:15;;;;;;;7.32;4.47;;;;;;;;;;5065377;28;20048;-63
2023/06/19 00:37:45;;;;;;;10.15;4.30;;;;;;;;;;5055459;28;20056;-66
2023/06/19 00:40:21;;;;;;;9.25;4.45;;;;;;;;;;5059132;28;20048;-65
2023/06/19 00:42:51;;;;;;;6.93;4.50;;;;;;;;;;5057077;28;20063;-69
2023/06/19 00:45:19;;;;;;;7.28;4.85;;;;;;;;;;5063130;28;20068;-69
2023/06/19 00:47:48;;;;;;;8.02;4.63;;;;;;;;;;5061896;28;20044;-66
2023/06/19 00:50:16;;;;;;;6.57;3.88;;;;;;;;;;5063447;28;20131;-64
2023/06/19 00:52:45;;;;;;;9.77;3.95;;;;;;;;;;5062206;28;20356;-63
2023/06/19 00:55:13;;;;;;;10.10;4.43;;;;;;;;;;5059654;28;20052;-66
2023/06/19 00:57:42;;;;;;;9.27;4.65;;;;;;;;;;5065104;28;20562;-65
2023/06/19 01:00:13;;;;;;;7.80;3.95;;;;;;;;;;5066763;28;20044;-69
2023/06/19 01:02:41;;;;;;;8.63;4.35;;;;;;;;;;5057830;28;20170;-68
2023/06/19 01:05:10;;;;;;;7.60;4.15;;;;;;;;;;5084201;22;20075;-61
2023/06/19 01:07:42;;;;;;;7.90;4.25;;;;;;;;;;5073705;28;20044;-60
2023/06/19 01:10:12;;;;;;;6.30;4.20;;;;;;;;;;5072077;28;20048;-61
2023/06/19 01:12:44;;;;;;;6.93;4.43;;;;;;;;;;5073705;28;20044;-62
2023/06/19 01:15:14;;;;;;;7.25;4.18;;;;;;;;;;5073286;28;20044;-61
2023/06/19 01:17:43;;;;;;;7.57;4.40;;;;;;;;;;5072722;28;20051;-60
2023/06/19 01:20:12;;;;;;;10.68;4.05;;;;;;;;;;5072738;28;20044;-64
2023/06/19 01:22:43;;;;;;;10.70;5.13;;;;;;;;;;5073490;28;20079;-62
2023/06/19 01:25:13;;;;;;;8.13;4.35;;;;;;;;;;5072731;28;20045;-63
2023/06/19 01:27:42;;;;;;;7.80;4.57;;;;;;;;;;5073607;28;20049;-68
2023/06/19 01:30:11;;;;;;;7.18;4.13;;;;;;;;;;5072490;28;20448;-63
2023/06/19 01:32:43;;;;;;;8.32;4.18;;;;;;;;;;5065434;28;20335;-70
2023/06/19 01:35:12;;;;;;;9.73;4.47;;;;;;;;;;5056169;28;20045;-67
2023/06/19 01:37:43;;;;;;;11.48;4.32;;;;;;;;;;5067087;28;20048;-62
2023/06/19 01:40:12;;;;;;;7.03;4.40;;;;;;;;;;5062913;28;20480;-69
2023/06/19 01:42:41;;;;;;;7.78;4.20;;;;;;;;;;5069888;28;20079;-70
2023/06/19 01:45:10;;;;;;;11.70;5.10;;;;;;;;;;5060512;28;20053;-61
2023/06/19 01:47:38;;;;;;;7.35;4.38;;;;;;;;;;5058575;28;20076;-62
2023/06/19 01:50:08;;;;;;;8.55;4.30;;;;;;;;;;5062261;28;20049;-62
2023/06/19 01:52:36;;;;;;;10.48;4.13;;;;;;;;;;5073070;28;20486;-61
2023/06/19 01:55:06;;;;;;;6.97;4.13;;;;;;;;;;5062328;28;20568;-61
2023/06/19 01:57:36;;;;;;;8.70;4.30;;;;;;;;;;5070560;28;20492;-62
2023/06/19 02:00:06;;;;;;;9.57;4.55;;;;;;;;;;5067641;28;20191;-69
2023/06/19 02:02:34;;;;;;;10.32;5.07;;;;;;;;;;5066156;28;20106;-66
2023/06/19 02:05:02;;;;;;;9.48;4.25;;;;;;;;;;5054411;28;20049;-61
2023/06/19 02:07:31;;;;;;;8.63;4.35;;;;;;;;;;5061334;28;20045;-61
2023/06/19 02:09:59;;;;;;;9.35;4.30;;;;;;;;;;5062474;28;20091;-61
2023/06/19 02:12:29;;;;;;;8.50;4.57;;;;;;;;;;5061248;28;20045;-63
2023/06/19 02:14:57;;;;;;;7.75;4.65;;;;;;;;;;5062427;28;20094;-62
2023/06/19 02:17:26;;;;;;;9.50;5.45;;;;;;;;;;5057273;28;20060;-66
2023/06/19 02:19:54;;;;;;;11.43;5.03;;;;;;;;;;5062396;28;20080;-65
2023/06/19 02:22:22;;;;;;;7.70;4.38;;;;;;;;;;5063053;28;20660;-61
2023/06/19 02:24:51;;;;;;;8.60;4.80;;;;;;;;;;5061694;28;20040;-70
2023/06/19 02:27:19;;;;;;;7.78;4.15;;;;;;;;;;5065760;28;20059;-63
2023/06/19 02:29:49;;;;;;;9.43;4.45;;;;;;;;;;5065853;28;20083;-63
2023/06/19 02:32:17;;;;;;;8.45;4.15;;;;;;;;;;5064612;28;20080;-61
2023/06/19 02:34:46;;;;;;;8.55;4.63;;;;;;;;;;5064134;28;20044;-61
2023/06/19 02:37:15;;;;;;;9.13;4.72;;;;;;;;;;5067069;28;20075;-66
2023/06/19 02:39:43;;;;;;;8.13;4.30;;;;;;;;;;5068354;28;20493;-61
2023/06/19 02:42:11;;;;;;;9.27;4.85;;;;;;;;;;5062346;28;20083;-62
2023/06/19 02:44:40;;;;;;;9.05;4.40;;;;;;;;;;5059086;28;20072;-66
2023/06/19 02:47:10;;;;;;;9.23;4.43;;;;;;;;;;5066182;28;20084;-63
2023/06/19 02:49:38;;;;;;;12.30;4.85;;;;;;;;;;5061641;28;20151;-68
2023/06/19 02:52:07;;;;;;;7.90;4.95;;;;;;;;;;5066464;28;20057;-65
2023/06/19 02:54:35;;;;;;;9.93;5.32;;;;;;;;;;5061666;28;20517;-64
2023/06/19 02:57:04;;;;;;;6.75;4.25;;;;;;;;;;5064048;28;20497;-62
2023/06/19 02:59:32;;;;;;;6.35;4.40;;;;;;;;;;5061882;28;20041;-60
2023/06/19 03:02:00;;;;;;;8.30;4.60;;;;;;;;;;5067185;28;20106;-64
2023/06/19 03:04:30;;;;;;;9.50;4.28;;;;;;;;;;5068543;28;20570;-62
2023/06/19 03:06:58;;;;;;;9.38;4.68;;;;;;;;;;5065139;28;20463;-63
2023/06/19 03:09:27;;;;;;;8.82;4.78;;;;;;;;;;5060677;28;20056;-60
2023/06/19 03:11:56;;;;;;;7.97;4.30;;;;;;;;;;5066607;28;20045;-62
2023/06/19 03:14:24;;;;;;;7.68;4.70;;;;;;;;;;5070621;28;20099;-62
2023/06/19 03:16:52;;;;;;;9.70;4.88;;;;;;;;;;5066221;28;20135;-61
2023/06/19 03:19:20;;;;;;;7.72;4.80;;;;;;;;;;5064549;28;20049;-60
2023/06/19 03:21:50;;;;;;;8.82;5.18;;;;;;;;;;5067318;28;20099;-61
2023/06/19 03:24:19;;;;;;;7.30;4.10;;;;;;;;;;5071204;28;20075;-61
2023/06/19 03:26:47;;;;;;;8.02;5.07;;;;;;;;;;5064409;28;20067;-63
2023/06/19 03:29:15;;;;;;;9.50;5.03;;;;;;;;;;5065660;28;20072;-62
2023/06/19 03:31:44;;;;;;;7.53;4.47;;;;;;;;;;5064857;28;20146;-62
2023/06/19 03:34:12;;;;;;;9.80;4.93;;;;;;;;;;5066429;28;20101;-67
2023/06/19 03:36:40;;;;;;;9.50;4.68;;;;;;;;;;5069818;28;20044;-60
2023/06/19 03:39:10;;;;;;;6.93;4.10;;;;;;;;;;5059628;28;20702;-61
2023/06/19 03:41:39;;;;;;;8.27;5.05;;;;;;;;;;5067965;28;20058;-64
2023/06/19 03:44:07;;;;;;;7.80;4.50;;;;;;;;;;5063884;28;20124;-63
2023/06/19 03:46:35;;;;;;;8.88;4.35;;;;;;;;;;5069624;28;20052;-61
2023/06/19 03:49:04;;;;;;;7.18;4.40;;;;;;;;;;5063145;28;20417;-64
2023/06/19 03:51:32;;;;;;;9.43;4.68;;;;;;;;;;5060888;28;20088;-67
2023/06/19 03:54:01;;;;;;;6.35;4.30;;;;;;;;;;5066610;28;20098;-67
2023/06/19 03:56:30;;;;;;;8.27;4.35;;;;;;;;;;5066390;28;20508;-61
2023/06/19 03:58:59;;;;;;;8.38;4.85;;;;;;;;;;5068813;28;20531;-60
2023/06/19 04:01:27;;;;;;;8.20;4.53;;;;;;;;;;5076244;28;20040;-61
2023/06/19 04:03:56;;;;;;;7.75;4.47;;;;;;;;;;5062106;28;20053;-63
2023/06/19 04:06:24;;;;;;;9.43;4.93;;;;;;;;;;5061329;28;20128;-64
2023/06/19 04:08:53;;;;;;;11.40;4.78;;;;;;;;;;5062389;28;20676;-62
2023/06/19 04:11:21;;;;;;;6.10;4.43;;;;;;;;;;5063725;28;20041;-67
2023/06/19 04:13:51;;;;;;;11.25;4.90;;;;;;;;;;5066098;28;20079;-69
2023/06/19 04:16:19;;;;;;;12.73;5.35;;;;;;;;;;5059099;28;20076;-61
2023/06/19 04:18:48;;;;;;;8.98;4.75;;;;;;;;;;5068146;28;20127;-61
2023/06/19 04:21:16;;;;;;;9.43;5.25;;;;;;;;;;5065274;28;20048;-67
2023/06/19 04:23:45;;;;;;;10.35;5.55;;;;;;;;;;5067049;28;20504;-63
2023/06/19 04:26:13;;;;;;;7.80;4.43;;;;;;;;;;5059305;28;20075;-61
2023/06/19 04:28:42;;;;;;;6.63;4.47;;;;;;;;;;5065278;28;20049;-63
2023/06/19 04:31:12;;;;;;;7.53;4.55;;;;;;;;;;5062129;28;20550;-63
2023/06/19 04:33:41;;;;;;;10.07;5.47;;;;;;;;;;5056530;28;20084;-61
2023/06/19 04:36:10;;;;;;;9.88;4.82;;;;;;;;;;5064517;28;20102;-61
2023/06/19 04:38:39;;;;;;;7.97;4.35;;;;;;;;;;5061404;28;20489;-60
2023/06/19 04:41:07;;;;;;;9.77;4.75;;;;;;;;;;5065313;28;20143;-60
2023/06/19 04:43:35;;;;;;;10.30;5.40;;;;;;;;;;5062227;28;20045;-64
2023/06/19 04:46:04;;;;;;;8.00;5.00;;;;;;;;;;5059100;28;20051;-62
2023/06/19 04:48:36;;;;;;;9.07;5.68;;;;;;;;;;5066440;28;20041;-63
2023/06/19 04:51:04;;;;;;;7.93;4.93;;;;;;;;;;5066827;28;20071;-61
2023/06/19 04:53:33;;;;;;;7.68;4.95;;;;;;;;;;5062704;28;20072;-60
2023/06/19 04:56:01;;;;;;;9.82;4.93;;;;;;;;;;5061962;28;20037;-61
2023/06/19 04:58:30;;;;;;;6.82;4.25;;;;;;;;;;5058267;28;20102;-64
2023/06/19 05:00:58;;;;;;;11.35;5.53;;;;;;;;;;5062337;28;20044;-62
2023/06/19 05:03:27;;;;;;;11.48;5.28;;;;;;;;;;5065646;28;20477;-61
2023/06/19 05:05:56;;;;;;;9.73;5.30;;;;;;;;;;5062535;28;20139;-62
2023/06/19 05:08:25;;;;;;;10.75;5.22;;;;;;;;;;5060593;28;20073;-61
2023/06/19 05:10:53;;;;;;;9.07;4.75;;;;;;;;;;5061764;28;20504;-61
2023/06/19 05:13:21;;;;;;;12.48;5.45;;;;;;;;;;5063382;28;21272;-65
2023/06/19 05:15:50;;;;;;;9.25;4.90;;;;;;;;;;5055175;28;20122;-60
2023/06/19 05:18:20;;;;;;;9.13;4.88;;;;;;;;;;5058169;28;20048;-64
2023/06/19 05:20:48;;;;;;;10.00;5.85;;;;;;;;;;5058896;28;20484;-64
2023/06/19 05:23:18;;;;;;;7.63;4.65;;;;;;;;;;5052836;28;20048;-63
2023/06/19 05:25:47;;;;;;;10.30;5.28;;;;;;;;;;5056239;28;20053;-63
2023/06/19 05:28:15;;;;;;;11.20;4.80;;;;;;;;;;5056986;28;20493;-61
2023/06/19 05:30:44;;;;;;;6.45;4.43;;;;;;;;;;5057581;28;20143;-60
2023/06/19 05:33:15;;;;;;;9.45;4.85;;;;;;;;;;5053975;28;20094;-62
2023/06/19 05:35:51;;;;;;;11.98;4.65;;;;;;;;;;5058521;28;20432;-62
2023/06/19 05:38:20;;;;;;;7.80;4.25;;;;;;;;;;5053276;28;20090;-62
2023/06/19 05:40:49;;;;;;;10.68;5.05;;;;;;;;;;5057274;28;20037;-61
2023/06/19 05:43:18;;;;;;;11.40;5.38;;;;;;;;;;5059311;28;20525;-62
2023/06/19 05:45:46;;;;;;;15.82;5.47;;;;;;;;;;5053881;28;20072;-69
2023/06/19 05:48:15;;;;;;;7.72;4.35;;;;;;;;;;5057721;28;20459;-63
2023/06/19 05:50:43;;;;;;;10.13;5.00;;;;;;;;;;5052308;28;20122;-69
2023/06/19 05:53:12;;;;;;;15.43;4.53;;;;;;;;;;5053419;28;20040;-62
2023/06/19 05:55:44;;;;;;;7.90;4.50;;;;;;;;;;5056454;28;20053;-63
2023/06/19 05:58:12;;;;;;;8.88;5.00;;;;;;;;;;5060881;28;20087;-67
2023/06/19 06:00:41;;;;;;;9.18;4.55;;;;;;;;;;5061504;28;20052;-62
2023/06/19 06:03:09;;;;;;;7.40;4.68;;;;;;;;;;5062565;28;20041;-63
2023/06/19 06:05:38;;;;;;;7.88;3.90;;;;;;;;;;5059175;28;20666;-74
2023/06/19 06:08:06;;;;;;;7.75;4.88;;;;;;;;;;5062022;28;20086;-73
2023/06/19 06:10:35;;;;;;;7.45;3.88;;;;;;;;;;5061468;28;20056;-63
2023/06/19 06:13:04;;;;;;;9.05;4.30;;;;;;;;;;5060219;28;21648;-61
2023/06/19 06:15:33;;;;;;;8.57;4.78;;;;;;;;;;5057389;28;20131;-73
2023/06/19 06:18:03;;;;;;;7.78;4.32;;;;;;;;;;5058159;28;20071;-72
2023/06/19 06:20:32;;;;;;;8.30;4.15;;;;;;;;;;5060032;28;20049;-69
2023/06/19 06:23:00;;;;;;;7.80;3.95;;;;;;;;;;5058672;28;20053;-62
2023/06/19 06:25:29;;;;;;;9.02;4.30;;;;;;;;;;5058922;28;20670;-61
2023/06/19 06:27:57;;;;;;;7.68;4.00;;;;;;;;;;5057805;28;20052;-65
2023/06/19 06:30:27;;;;;;;10.35;4.47;;;;;;;;;;5061518;28;20052;-70
2023/06/19 06:32:56;;;;;;;10.77;4.65;;;;;;;;;;5062783;28;20064;-68
2023/06/19 06:35:24;;;;;;;9.18;4.18;;;;;;;;;;5059280;28;20175;-71
2023/06/19 06:37:53;;;;;;;6.93;4.25;;;;;;;;;;5062881;28;20049;-64
2023/06/19 06:40:21;;;;;;;8.00;4.40;;;;;;;;;;5059366;28;20094;-62
2023/06/19 06:42:50;;;;;;;9.00;4.88;;;;;;;;;;5061210;28;20047;-61
2023/06/19 06:45:18;;;;;;;9.98;4.32;;;;;;;;;;5052221;28;20076;-68
2023/06/19 06:47:48;;;;;;;8.00;3.85;;;;;;;;;;5035587;28;20098;-63
2023/06/19 06:50:17;;;;;;;10.30;4.80;;;;;;;;;;5037679;28;20041;-64
2023/06/19 06:52:46;;;;;;;6.30;3.88;;;;;;;;;;5035166;28;20076;-62
2023/06/19 06:55:14;;;;;;;7.93;4.45;;;;;;;;;;5043955;28;20072;-63
2023/06/19 06:57:42;;;;;;;8.27;4.43;;;;;;;;;;5058710;28;20509;-67
2023/06/19 07:00:12;;;;;;;8.05;4.55;;;;;;;;;;5060628;28;20098;-66
2023/06/19 07:02:41;;;;;;;7.70;4.72;;;;;;;;;;5061206;28;20128;-67
2023/06/19 07:05:11;;;;;;;7.90;4.13;;;;;;;;;;5060432;28;20102;-71
2023/06/19 07:07:40;;;;;;;7.25;4.15;;;;;;;;;;5053892;28;20048;-62
2023/06/19 07:10:09;;;;;;;5.88;3.22;;;;;;;;;;5060682;28;20048;-64
2023/06/19 07:12:45;;;;;;;9.05;3.78;;;;;;;;;;5057762;28;20052;-65
2023/06/19 07:15:14;;;;;;;7.45;3.75;;;;;;;;;;5056719;28;20056;-62
2023/06/19 07:17:42;;;;;;;9.27;4.20;;;;;;;;;;5061017;28;20052;-73
2023/06/19 07:20:12;;;;;;;5.93;4.38;;;;;;;;;;5057864;28;20046;-67
2023/06/19 07:22:40;;;;;;;11.48;3.75;;;;;;;;;;5059114;28;20481;-76
2023/06/19 07:25:10;;;;;;;5.00;3.13;;;;;;;;;;5061304;28;20102;-68
2023/06/19 07:27:39;;;;;;;7.28;3.33;;;;;;;;;;5062847;28;20798;-64
2023/06/19 07:30:08;;;;;;;6.32;3.63;;;;;;;;;;5061031;28;20067;-78
2023/06/19 07:32:37;;;;;;;7.40;3.72;;;;;;;;;;5059596;28;20044;-69
2023/06/19 07:35:06;;;;;;;8.57;4.07;;;;;;;;;;5058709;28;20335;-72
2023/06/19 07:37:36;;;;;;;8.10;3.60;;;;;;;;;;5061809;28;20048;-68
2023/06/19 07:40:05;;;;;;;9.13;3.60;;;;;;;;;;5061955;28;20052;-67
2023/06/19 07:42:33;;;;;;;6.18;3.80;;;;;;;;;;5061165;28;20044;-65
2023/06/19 07:45:01;;;;;;;6.38;3.50;;;;;;;;;;5060411;28;20048;-64
2023/06/19 07:47:30;;;;;;;5.07;3.22;;;;;;;;;;5061264;28;20558;-78
2023/06/19 07:49:58;;;;;;;6.18;3.28;;;;;;;;;;5057954;28;20059;-67
2023/06/19 07:52:27;;;;;;;4.78;3.08;;;;;;;;;;5061453;28;20048;-65
2023/06/19 07:54:57;;;;;;;4.25;3.10;;;;;;;;;;5058698;28;20045;-67
2023/06/19 07:57:26;;;;;;;6.65;3.30;;;;;;;;;;5058899;28;20094;-70
2023/06/19 07:59:56;;;;;;;4.65;2.85;;;;;;;;;;5060537;28;20047;-66
2023/06/19 08:02:24;;;;;;;4.25;2.85;;;;;;;;;;5061665;28;20113;-72
2023/06/19 08:04:53;;;;;;;6.18;2.78;;;;;;;;;;5057388;28;21735;-67
2023/06/19 08:07:21;;;;;;;5.65;3.25;;;;;;;;;;5058607;28;21023;-66
2023/06/19 08:09:50;;;;;;;5.05;2.80;;;;;;;;;;5059870;28;20053;-75
2023/06/19 08:12:32;;;;;;;5.03;2.85;;;;;;;;;;5059542;28;20061;-65
2023/06/19 08:15:01;;;;;;;4.47;2.30;;;;;;;;;;5057535;28;20640;-67
2023/06/19 08:17:29;;;;;;;4.90;2.75;;;;;;;;;;5059901;28;20044;-77
2023/06/19 08:19:58;;;;;;;3.95;2.67;;;;;;;;;;5059371;28;20051;-65
2023/06/19 08:22:26;;;;;;;3.88;2.60;;;;;;;;;;5061349;28;20458;-71
2023/06/19 08:24:54;;;;;;;5.53;3.13;;;;;;;;;;5060791;28;20132;-64
2023/06/19 08:27:23;;;;;;;7.93;3.25;;;;;;;;;;5058876;28;20052;-76
2023/06/19 08:29:53;;;;;;;5.03;2.80;;;;;;;;;;5056290;28;20072;-66
2023/06/19 08:32:21;;;;;;;6.07;3.40;;;;;;;;;;5056851;28;20052;-64
2023/06/19 08:34:50;;;;;;;3.65;3.10;;;;;;;;;;5061049;28;20090;-72
2023/06/19 08:37:19;;;;;;;4.20;3.00;;;;;;;;;;5058830;28;20055;-63
2023/06/19 08:39:47;;;;;;;3.88;2.72;;;;;;;;;;5058892;28;20328;-72
2023/06/19 08:42:16;;;;;;;5.00;2.92;;;;;;;;;;5056885;28;20056;-67
2023/06/19 08:44:44;;;;;;;4.75;2.85;;;;;;;;;;5060245;28;20706;-66
2023/06/19 08:47:14;;;;;;;3.72;2.28;;;;;;;;;;5059330;28;20574;-65
2023/06/19 08:49:42;;;;;;;6.60;2.33;;;;;;;;;;5057428;28;20135;-65
2023/06/19 08:52:11;;;;;;;3.25;2.45;;;;;;;;;;5056387;28;20044;-71
2023/06/19 08:54:43;;;;;;;3.05;2.40;;;;;;;;;;5060287;28;20052;-66
2023/06/19 08:57:12;;;;;;;4.95;2.88;;;;;;;;;;5059983;28;20052;-64
2023/06/19 08:59:41;;;;;;;3.45;2.40;;;;;;;;;;5058225;28;20098;-67
2023/06/19 09:02:09;;;;;;;4.35;1.92;;;;;;;;;;5055159;28;20052;-68
2023/06/19 09:04:39;;;;;;;2.83;2.00;;;;;;;;;;5055895;28;20095;-77
2023/06/19 09:07:09;;;;;;;2.90;2.03;;;;;;;;;;5057404;28;20083;-66
2023/06/19 09:09:37;;;;;;;2.15;1.48;;;;;;;;;;5057227;28;20056;-65
2023/06/19 09:12:06;;;;;;;3.35;1.88;;;;;;;;;;5057316;28;20068;-73
2023/06/19 09:14:35;;;;;;;3.53;1.60;;;;;;;;;;5057211;28;20051;-68
2023/06/19 09:17:04;;;;;;;2.63;1.90;;;;;;;;;;5060107;28;20044;-73
2023/06/19 09:19:34;;;;;;;10.35;2.47;;;;;;;;;;5055168;28;20444;-65
2023/06/19 09:22:05;;;;;;;4.35;1.85;;;;;;;;;;5058863;28;20094;-65
2023/06/19 09:24:35;;;;;;;3.42;1.80;;;;;;;;;;5057566;28;20048;-69
2023/06/19 09:27:08;;;;;;;2.85;1.85;;;;;;;;;;5059895;28;20127;-70
2023/06/19 09:29:39;;;;;;;3.28;1.75;;;;;;;;;;5054921;28;20045;-68
2023/06/19 09:32:17;;;;;;;2.92;2.10;;;;;;;;;;5058663;28;20045;-67
2023/06/19 09:34:45;;;;;;;3.45;2.30;;;;;;;;;;5059024;28;20101;-80
2023/06/19 09:37:15;;;;;;;3.20;2.10;;;;;;;;;;5059324;28;20048;-69
2023/06/19 09:39:44;;;;;;;5.63;2.33;;;;;;;;;;5059667;28;20405;-69
2023/06/19 09:42:15;;;;;;;3.33;2.22;;;;;;;;;;5056336;28;20146;-69
2023/06/19 09:44:44;;;;;;;2.75;2.15;;;;;;;;;;5058999;28;20045;-67
2023/06/19 09:47:18;;;;;;;3.25;2.10;;;;;;;;;;5058317;28;20076;-66
2023/06/19 09:49:50;;;;;;;3.10;2.10;;;;;;;;;;5051753;28;20045;-65
2023/06/19 09:52:22;;;;;;;5.40;2.15;;;;;;;;;;5054271;28;20110;-68
2023/06/19 09:54:51;;;;;;;3.45;2.13;;;;;;;;;;5054071;28;20401;-69
2023/06/19 09:57:19;;;;;;;2.40;1.88;;;;;;;;;;5059329;28;20079;-68
2023/06/19 09:59:49;;;;;;;5.90;2.15;;;;;;;;;;5055996;28;20045;-65
2023/06/19 10:02:18;;;;;;;5.10;2.25;;;;;;;;;;5060437;28;20413;-78
2023/06/19 10:04:47;;;;;;;3.53;1.95;;;;;;;;;;5053914;28;20354;-68
2023/06/19 10:07:21;;;;;;;5.53;2.38;;;;;;;;;;5058995;28;20041;-68
2023/06/19 10:10:05;;;;;;;3.67;2.40;;;;;;;;;;5060123;28;20076;-68
2023/06/19 10:12:37;;;;;;;4.07;2.65;;;;;;;;;;5059699;28;20485;-66
2023/06/19 10:15:17;;;;;;;3.90;2.03;;;;;;;;;;5055761;28;20076;-69
2023/06/19 10:17:47;;;;;;;3.65;2.70;;;;;;;;;;5055808;28;20551;-67
2023/06/19 10:20:27;;;;;;;3.33;2.35;;;;;;;;;;5053907;28;20099;-69
2023/06/19 10:23:01;;;;;;;2.70;2.13;;;;;;;;;;5054547;28;20114;-69
2023/06/19 10:25:32;;;;;;;5.57;2.42;;;;;;;;;;5054363;28;20048;-68
2023/06/19 10:28:01;;;;;;;3.10;2.38;;;;;;;;;;5054894;28;20060;-72
2023/06/19 10:30:30;;;;;;;3.33;2.30;;;;;;;;;;5059451;28;20457;-65
2023/06/19 10:32:58;;;;;;;3.45;2.17;;;;;;;;;;5051689;28;20055;-65
2023/06/19 10:35:27;;;;;;;3.58;2.40;;;;;;;;;;5058896;28;20094;-66
2023/06/19 10:37:56;;;;;;;4.32;2.28;;;;;;;;;;5057269;28;20117;-74
2023/06/19 10:40:25;;;;;;;3.47;2.17;;;;;;;;;;5058372;28;20044;-79
2023/06/19 10:42:54;;;;;;;2.20;1.80;;;;;;;;;;5055312;28;20057;-64
2023/06/19 10:45:28;;;;;;;4.60;2.00;;;;;;;;;;5063595;28;20044;-63
2023/06/19 10:47:57;;;;;;;2.42;1.83;;;;;;;;;;5058140;28;20053;-64
2023/06/19 10:50:26;;;;;;;2.47;1.92;;;;;;;;;;5057072;28;20064;-68
2023/06/19 10:52:55;;;;;;;3.13;1.80;;;;;;;;;;5061071;28;20053;-68
2023/06/19 10:55:23;;;;;;;2.70;1.80;;;;;;;;;;5060884;28;20159;-67
2023/06/19 10:57:53;;;;;;;2.67;1.70;;;;;;;;;;5064083;28;20068;-64
2023/06/19 11:00:25;;;;;;;2.50;1.80;;;;;;;;;;5061787;28;20092;-67
2023/06/19 11:02:53;;;;;;;3.00;1.73;;;;;;;;;;5061302;28;20076;-66
2023/06/19 11:05:22;;;;;;;3.38;1.77;;;;;;;;;;5059536;28;20047;-66
2023/06/19 11:07:55;;;;;;;2.95;1.90;;;;;;;;;;5058386;28;20432;-69
2023/06/19 11:10:23;;;;;;;3.40;1.75;;;;;;;;;;5061435;28;20118;-69
2023/06/19 11:12:56;;;;;;;3.13;2.10;;;;;;;;;;5060056;28;20045;-64
2023/06/19 11:15:31;;;;;;;3.10;1.98;;;;;;;;;;5058731;28;20072;-64
2023/06/19 11:18:00;;;;;;;2.10;1.90;;;;;;;;;;5060448;28;20537;-64
2023/06/19 11:20:29;;;;;;;2.72;1.83;;;;;;;;;;5057526;28;20087;-70
2023/06/19 11:22:58;;;;;;;2.80;1.90;;;;;;;;;;5056235;28;20073;-67
2023/06/19 11:25:36;;;;;;;2.28;1.75;;;;;;;;;;5055356;28;20064;-75
2023/06/19 11:28:06;;;;;;;2.55;1.80;;;;;;;;;;5061282;28;20527;-69
2023/06/19 11:30:35;;;;;;;3.70;2.20;;;;;;;;;;5054831;28;20109;-66
2023/06/19 11:33:04;;;;;;;2.50;1.80;;;;;;;;;;5057749;28;20040;-65
2023/06/19 11:35:36;;;;;;;4.50;1.88;;;;;;;;;;5057645;28;20045;-66
2023/06/19 11:38:05;;;;;;;3.40;1.88;;;;;;;;;;5054834;28;20044;-75
2023/06/19 11:40:40;;;;;;;2.67;1.95;;;;;;;;;;5057813;28;20094;-67
2023/06/19 11:43:10;;;;;;;2.53;1.65;;;;;;;;;;5055591;28;20057;-64
2023/06/19 11:45:49;;;;;;;4.13;2.28;;;;;;;;;;5054093;28;20097;-65
2023/06/19 11:48:23;;;;;;;4.57;1.98;;;;;;;;;;5058650;28;20620;-69
2023/06/19 11:50:52;;;;;;;3.70;2.08;;;;;;;;;;5058327;28;20056;-73
2023/06/19 11:53:21;;;;;;;4.53;2.70;;;;;;;;;;5055630;28;20502;-71
2023/06/19 11:55:50;;;;;;;3.90;1.90;;;;;;;;;;5058092;28;20064;-62
2023/06/19 11:58:20;;;;;;;2.55;1.85;;;;;;;;;;5060925;28;20090;-71
2023/06/19 12:00:49;;;;;;;3.08;1.75;;;;;;;;;;5060110;28;20052;-71
2023/06/19 12:03:18;;;;;;;2.78;1.92;;;;;;;;;;5060502;28;20052;-75
2023/06/19 12:05:46;;;;;;;2.20;1.50;;;;;;;;;;5060219;28;20123;-66
2023/06/19 12:08:15;;;;;;;2.10;1.70;;;;;;;;;;5060905;28;20052;-64
2023/06/19 12:10:43;;;;;;;2.97;1.92;;;;;;;;;;5058769;28;20055;-64
2023/06/19 12:13:12;;;;;;;3.33;2.03;;;;;;;;;;5060691;28;20044;-67
2023/06/19 12:15:41;;;;;;;2.60;1.83;;;;;;;;;;5061723;28;21061;-67
2023/06/19 12:18:12;;;;;;;3.00;2.00;;;;;;;;;;5059482;28;20079;-62
2023/06/19 12:20:40;;;;;;;3.03;1.98;;;;;;;;;;5062438;28;20052;-63
2023/06/19 12:23:09;;;;;;;2.40;1.70;;;;;;;;;;5057696;28;20095;-63
2023/06/19 12:25:37;;;;;;;3.05;2.00;;;;;;;;;;5057086;28;20133;-65
2023/06/19 12:28:08;;;;;;;4.15;1.75;;;;;;;;;;5059106;28;20052;-68
2023/06/19 12:30:36;;;;;;;2.25;1.92;;;;;;;;;;5057161;28;20098;-64
2023/06/19 12:33:06;;;;;;;2.22;1.42;;;;;;;;;;5058560;28;20084;-64
2023/06/19 12:35:34;;;;;;;2.20;1.90;;;;;;;;;;5056880;28;20079;-72
2023/06/19 12:38:03;;;;;;;2.50;1.60;;;;;;;;;;5061115;28;20047;-68
2023/06/19 12:40:34;;;;;;;3.67;1.63;;;;;;;;;;5053529;28;20057;-74
2023/06/19 12:43:03;;;;;;;2.00;1.50;;;;;;;;;;5059407;28;20075;-74
2023/06/19 12:45:31;;;;;;;2.70;1.80;;;;;;;;;;5059233;28;20048;-62
2023/06/19 12:48:00;;;;;;;2.60;1.83;;;;;;;;;;5058606;28;20044;-64
2023/06/19 12:50:30;;;;;;;2.53;1.90;;;;;;;;;;5053528;28;20041;-66
2023/06/19 12:52:58;;;;;;;2.65;1.90;;;;;;;;;;5056585;28;20052;-65
2023/06/19 12:55:27;;;;;;;2.45;1.75;;;;;;;;;;5055903;28;20044;-66
2023/06/19 12:57:55;;;;;;;2.60;1.70;;;;;;;;;;5059038;28;20133;-69
2023/06/19 13:00:23;;;;;;;2.10;1.60;;;;;;;;;;5057259;28;20566;-67
2023/06/19 13:02:52;;;;;;;2.72;2.00;;;;;;;;;;5055999;28;20698;-65
2023/06/19 13:05:21;;;;;;;2.55;1.90;;;;;;;;;;5058265;28;20055;-74
2023/06/19 13:07:51;;;;;;;2.45;1.63;;;;;;;;;;5058651;28;20133;-64
2023/06/19 13:10:19;;;;;;;5.13;2.15;;;;;;;;;;5058558;28;20048;-62
2023/06/19 13:12:48;;;;;;;3.08;1.88;;;;;;;;;;5058230;28;20386;-71
2023/06/19 13:15:16;;;;;;;2.53;1.80;;;;;;;;;;5060575;28;20086;-68
2023/06/19 13:17:45;;;;;;;2.85;1.73;;;;;;;;;;5058785;28;20045;-74
2023/06/19 13:20:14;;;;;;;4.05;1.80;;;;;;;;;;5060090;28;20838;-67
2023/06/19 13:22:42;;;;;;;3.13;1.85;;;;;;;;;;5057910;28;20052;-65
2023/06/19 13:25:12;;;;;;;2.85;1.80;;;;;;;;;;5058160;28;20060;-65
2023/06/19 13:27:41;;;;;;;2.28;1.70;;;;;;;;;;5057243;28;20048;-77
2023/06/19 13:30:10;;;;;;;2.83;1.80;;;;;;;;;;5058794;28;20409;-77
2023/06/19 13:32:38;;;;;;;2.95;1.88;;;;;;;;;;5055519;28;20060;-64
2023/06/19 13:35:07;;;;;;;3.30;1.90;;;;;;;;;;5056759;28;20055;-71
2023/06/19 13:37:37;;;;;;;3.05;1.80;;;;;;;;;;5058970;28;20068;-67
2023/06/19 13:40:07;;;;;;;3.38;1.75;;;;;;;;;;5057519;28;20433;-67
2023/06/19 13:42:38;;;;;;;3.03;1.55;;;;;;;;;;5058512;28;20103;-70
2023/06/19 13:45:07;;;;;;;2.70;1.90;;;;;;;;;;5059219;28;20052;-62
2023/06/19 13:47:37;;;;;;;4.13;2.00;;;;;;;;;;5056565;28;20045;-63
2023/06/19 13:50:06;;;;;;;2.75;1.85;;;;;;;;;;5059116;28;20470;-75
2023/06/19 13:52:34;;;;;;;1.83;1.42;;;;;;;;;;5056306;28;20060;-67
2023/06/19 13:55:04;;;;;;;2.80;1.73;;;;;;;;;;5056675;28;20505;-75
2023/06/19 13:57:32;;;;;;;2.33;1.90;;;;;;;;;;5058603;28;20121;-64
2023/06/19 14:00:03;;;;;;;3.33;1.60;;;;;;;;;;5055835;28;20178;-66
2023/06/19 14:02:31;;;;;;;2.80;1.95;;;;;;;;;;5058062;28;20051;-74
2023/06/19 14:05:00;;;;;;;3.67;1.67;;;;;;;;;;5054713;28;20041;-64
2023/06/19 14:07:28;;;;;;;3.55;1.73;;;;;;;;;;5057931;28;20041;-71
2023/06/19 14:09:56;;;;;;;3.03;2.03;;;;;;;;;;5056002;28;20714;-64
2023/06/19 14:12:25;;;;;;;2.17;1.60;;;;;;;;;;5054468;28;20060;-71
2023/06/19 14:14:54;;;;;;;3.40;2.30;;;;;;;;;;5056621;28;20087;-69
2023/06/19 14:17:24;;;;;;;2.72;1.90;;;;;;;;;;5058981;28;20060;-77
2023/06/19 14:19:56;;;;;;;3.15;2.03;;;;;;;;;;5062984;28;20064;-67
2023/06/19 14:22:25;;;;;;;2.38;1.92;;;;;;;;;;5063030;28;20041;-65
2023/06/19 14:24:59;;;;;;;5.00;2.03;;;;;;;;;;5062519;28;20061;-66
2023/06/19 14:27:28;;;;;;;2.92;1.98;;;;;;;;;;5058351;28;20451;-67
2023/06/19 14:29:56;;;;;;;2.70;2.00;;;;;;;;;;5061903;28;20074;-75
2023/06/19 14:32:26;;;;;;;3.42;2.22;;;;;;;;;;5055852;28;20076;-69
2023/06/19 14:34:54;;;;;;;4.35;2.30;;;;;;;;;;5029859;28;20040;-65
2023/06/19 14:37:23;;;;;;;2.65;1.95;;;;;;;;;;5065608;28;20460;-68
2023/06/19 14:39:51;;;;;;;2.65;1.92;;;;;;;;;;5061224;28;20725;-65
2023/06/19 14:42:20;;;;;;;2.55;1.90;;;;;;;;;;5056677;28;20436;-73
2023/06/19 14:44:48;;;;;;;3.10;2.05;;;;;;;;;;5059315;28;20398;-66
2023/06/19 14:47:16;;;;;;;3.65;2.63;;;;;;;;;;5061307;28;20344;-64
2023/06/19 14:49:47;;;;;;;2.88;2.15;;;;;;;;;;5063339;28;20052;-66
2023/06/19 14:52:16;;;;;;;2.72;1.98;;;;;;;;;;5058419;28;20275;-68